Moyer Aviation Incorporated

Pocono Mountains Airport

188 Airport Rd. Tobyhanna, PA 18466 

P: 570-839-7161
800-321-5890
F: 570-839-7162

Weather

Weather

Pocono Weather

KMPO 010553Z AUTO 12006KT 3/4SM BR VV002 07/07 A3006 RMK AO2 SLP184 T00670067 10094 20067 57007

KMPO 010548Z AUTO 11007KT 3/4SM BR VV002 07/07 A3006 RMK AO2

KMPO 010528Z AUTO 11008KT 1 3/4SM BR OVC003 07/07 A3007 RMK AO2 T00670067

Allentown Weather

KABE 010551Z 08008KT 9SM OVC007 11/08 A3008 RMK AO2 SLP185 T01060078 10128 20106 58018

KABE 010533Z 08006KT 10SM OVC009 11/08 A3009 RMK AO2 T01060078

Wilkes-Barre Weather

KAVP 010554Z VRB04KT 9SM OVC012 12/09 A3002 RMK AO2 SLP162 T01220094 10161 20122 58018

KAVP 010513Z 12004KT 9SM OVC014 13/09 A3004 RMK AO2 T01280094


* required field

Contact Us